Time;durP1;ratioP1;P1;durP2;ratioP2;P2;SDS_P1;SDS_P2;PMS_P1;PMS_P2;Temp;Humidity;BMP_temperature;BMP_pressure;BME280_temperature;BME280_humidity;BME280_pressure;Samples;Min_cycle;Max_cycle;Signal;HPM_P1;HPM_P2
2021/12/30 00:00:38;;;;;;;7.30;5.40;;;6.00;99.90;;;;;;5024584;28;20538;-64
2021/12/30 00:03:05;;;;;;;6.57;4.53;;;6.10;99.90;;;;;;5022588;28;20234;-65
2021/12/30 00:05:32;;;;;;;8.47;5.47;;;6.00;99.90;;;;;;5021864;28;20189;-66
2021/12/30 00:07:58;;;;;;;10.70;5.20;;;6.00;99.90;;;;;;5021958;28;20231;-66
2021/12/30 00:10:24;;;;;;;8.47;5.33;;;6.10;99.90;;;;;;5018722;28;20193;-64
2021/12/30 00:12:51;;;;;;;14.83;5.57;;;6.10;99.90;;;;;;5022113;28;20268;-65
2021/12/30 00:15:18;;;;;;;10.30;5.60;;;6.20;99.90;;;;;;5024245;28;20173;-68
2021/12/30 00:17:44;;;;;;;9.77;6.00;;;6.20;99.90;;;;;;5020246;28;20187;-65
2021/12/30 00:20:10;;;;;;;7.03;4.73;;;6.20;99.90;;;;;;5016861;28;20197;-71
2021/12/30 00:22:37;;;;;;;9.47;5.50;;;6.30;99.90;;;;;;5015821;28;20208;-68
2021/12/30 00:25:04;;;;;;;9.03;5.60;;;6.20;99.90;;;;;;5016222;28;20731;-66
2021/12/30 00:27:30;;;;;;;7.63;5.03;;;6.30;99.90;;;;;;5017041;28;20216;-65
2021/12/30 00:29:56;;;;;;;9.60;6.47;;;6.30;99.90;;;;;;5020286;28;20188;-66
2021/12/30 00:32:21;;;;;;;7.37;5.07;;;6.30;99.90;;;;;;5018766;28;20250;-65
2021/12/30 00:34:47;;;;;;;7.57;5.60;;;6.20;99.90;;;;;;5017947;28;20274;-69
2021/12/30 00:37:13;;;;;;;9.33;5.53;;;6.40;99.90;;;;;;5027022;28;20689;-66
2021/12/30 00:39:39;;;;;;;9.70;5.10;;;6.30;99.90;;;;;;5026494;28;20189;-66
2021/12/30 00:42:05;;;;;;;6.87;4.50;;;6.40;99.90;;;;;;5027865;28;20577;-69
2021/12/30 00:44:31;;;;;;;8.07;5.00;;;6.30;99.90;;;;;;5020795;28;20190;-65
2021/12/30 00:47:00;;;;;;;7.97;4.57;;;6.20;99.90;;;;;;5019929;28;20506;-66
2021/12/30 00:49:26;;;;;;;9.00;4.93;;;6.20;99.90;;;;;;5022240;28;20217;-64
2021/12/30 00:51:52;;;;;;;9.10;5.43;;;6.20;99.90;;;;;;5020745;28;20280;-66
2021/12/30 00:54:19;;;;;;;6.37;4.60;;;6.30;99.90;;;;;;5019969;28;20258;-65
2021/12/30 00:56:45;;;;;;;7.47;5.00;;;6.20;99.90;;;;;;5017483;28;20515;-65
2021/12/30 00:59:11;;;;;;;13.83;5.73;;;6.20;99.90;;;;;;5021197;28;20183;-65
2021/12/30 01:01:37;;;;;;;7.30;5.37;;;6.10;99.90;;;;;;5024208;28;20190;-66
2021/12/30 01:04:03;;;;;;;8.90;5.80;;;6.10;99.90;;;;;;5020162;28;20202;-65
2021/12/30 01:06:30;;;;;;;9.40;5.03;;;6.10;99.90;;;;;;5019664;28;20198;-64
2021/12/30 01:08:57;;;;;;;11.17;4.63;;;6.00;99.90;;;;;;5022360;28;20189;-64
2021/12/30 01:11:24;;;;;;;6.43;4.37;;;6.00;99.90;;;;;;5018540;28;20212;-64
2021/12/30 01:13:59;;;;;;;7.07;4.13;;;6.00;99.90;;;;;;5017956;28;20197;-63
2021/12/30 01:16:29;;;;;;;8.37;5.00;;;6.00;99.90;;;;;;5021391;28;20199;-68
2021/12/30 01:19:15;;;;;;;7.63;4.73;;;6.00;99.90;;;;;;5024358;28;20188;-65
2021/12/30 01:21:43;;;;;;;6.47;4.63;;;6.10;99.90;;;;;;5022005;28;20303;-66
2021/12/30 01:24:09;;;;;;;7.13;4.47;;;6.00;99.90;;;;;;5023235;28;20249;-64
2021/12/30 01:26:35;;;;;;;7.80;4.90;;;5.90;99.90;;;;;;5025619;28;20196;-67
2021/12/30 01:29:01;;;;;;;6.03;4.30;;;6.00;99.90;;;;;;5020076;28;20202;-63
2021/12/30 01:31:26;;;;;;;9.37;5.40;;;6.00;99.90;;;;;;5017366;28;20193;-64
2021/12/30 01:33:52;;;;;;;7.87;5.03;;;6.00;99.90;;;;;;5019228;28;20699;-64
2021/12/30 01:36:21;;;;;;;8.40;4.83;;;6.00;99.90;;;;;;5017927;28;20193;-65
2021/12/30 01:38:47;;;;;;;9.83;5.03;;;6.00;99.90;;;;;;5018944;28;20645;-64
2021/12/30 01:41:13;;;;;;;7.90;4.77;;;6.00;99.90;;;;;;5018371;28;20190;-64
2021/12/30 01:43:39;;;;;;;10.50;5.40;;;6.00;99.90;;;;;;5018071;28;20271;-69
2021/12/30 01:46:08;;;;;;;9.20;5.30;;;6.00;99.90;;;;;;5017232;28;20201;-65
2021/12/30 01:48:33;;;;;;;6.33;4.53;;;6.00;99.90;;;;;;5021004;28;20209;-62
2021/12/30 01:51:00;;;;;;;8.27;4.97;;;6.00;99.90;;;;;;5020032;28;20208;-64
2021/12/30 01:53:26;;;;;;;7.97;5.30;;;6.10;99.90;;;;;;5019481;28;20621;-63
2021/12/30 01:55:52;;;;;;;7.33;5.50;;;6.00;99.90;;;;;;5021370;28;20188;-65
2021/12/30 01:58:18;;;;;;;10.20;5.90;;;6.10;99.90;;;;;;5021542;28;20179;-65
2021/12/30 02:00:47;;;;;;;12.27;5.27;;;6.10;99.90;;;;;;5023179;28;20281;-65
2021/12/30 02:03:13;;;;;;;6.90;5.00;;;6.10;99.90;;;;;;5025079;28;20181;-63
2021/12/30 02:05:40;;;;;;;11.07;6.07;;;6.10;99.90;;;;;;5021823;28;20198;-65
2021/12/30 02:08:10;;;;;;;8.90;5.70;;;6.10;99.90;;;;;;5017973;28;20327;-65
2021/12/30 02:10:36;;;;;;;12.17;6.30;;;6.10;99.90;;;;;;5018738;28;20224;-67
2021/12/30 02:13:02;;;;;;;11.20;6.27;;;6.10;99.90;;;;;;5018648;28;20219;-68
2021/12/30 02:15:28;;;;;;;10.73;6.73;;;6.10;99.90;;;;;;5019064;28;20195;-64
2021/12/30 02:17:54;;;;;;;9.93;6.07;;;6.20;99.90;;;;;;5023548;28;20185;-64
2021/12/30 02:20:45;;;;;;;9.47;5.50;;;6.20;99.90;;;;;;5019506;28;20633;-64
2021/12/30 02:23:22;;;;;;;8.13;5.23;;;6.10;99.90;;;;;;5018082;28;20536;-64
2021/12/30 02:25:49;;;;;;;12.57;5.67;;;6.10;99.90;;;;;;5020433;28;20190;-65
2021/12/30 02:28:17;;;;;;;8.07;4.83;;;6.20;99.90;;;;;;5019999;28;20218;-64
2021/12/30 02:30:43;;;;;;;10.03;5.80;;;6.20;99.90;;;;;;5018217;28;20752;-63
2021/12/30 02:33:10;;;;;;;7.00;4.83;;;6.10;99.90;;;;;;5017958;28;20226;-64
2021/12/30 02:35:36;;;;;;;11.80;5.80;;;6.10;99.90;;;;;;5022405;28;20200;-64
2021/12/30 02:38:02;;;;;;;9.50;5.93;;;6.20;99.90;;;;;;5023158;28;20192;-66
2021/12/30 02:40:32;;;;;;;11.03;6.50;;;6.20;99.90;;;;;;5024221;28;20195;-65
2021/12/30 02:42:57;;;;;;;8.67;5.40;;;6.30;99.90;;;;;;5018845;28;20657;-64
2021/12/30 02:45:23;;;;;;;8.60;5.83;;;6.30;99.90;;;;;;5017279;28;20198;-67
2021/12/30 02:47:49;;;;;;;8.60;5.47;;;6.20;99.90;;;;;;5017115;28;20202;-64
2021/12/30 02:50:14;;;;;;;10.57;6.20;;;6.30;99.90;;;;;;5019614;28;20636;-66
2021/12/30 02:52:40;;;;;;;11.40;6.63;;;6.30;99.90;;;;;;5020135;28;20239;-64
2021/12/30 02:55:06;;;;;;;10.33;5.87;;;6.30;99.90;;;;;;5019933;28;20270;-64
2021/12/30 02:57:32;;;;;;;13.17;6.43;;;6.40;99.90;;;;;;5019838;28;20192;-65
2021/12/30 02:59:58;;;;;;;11.13;6.23;;;6.40;99.90;;;;;;5016681;28;20677;-65
2021/12/30 03:02:23;;;;;;;10.83;6.47;;;6.40;99.90;;;;;;5023031;28;20191;-67
2021/12/30 03:04:49;;;;;;;13.87;6.47;;;6.40;99.90;;;;;;5021904;28;20185;-66
2021/12/30 03:07:18;;;;;;;10.17;6.23;;;6.30;99.90;;;;;;5021320;28;20612;-64
2021/12/30 03:09:44;;;;;;;10.50;6.17;;;6.40;99.90;;;;;;5020869;28;20186;-63
2021/12/30 03:12:10;;;;;;;11.97;6.53;;;6.40;99.90;;;;;;5023177;28;20211;-64
2021/12/30 03:14:40;;;;;;;10.17;6.57;;;6.30;99.90;;;;;;5022034;28;20287;-65
2021/12/30 03:17:06;;;;;;;13.33;6.37;;;6.40;99.90;;;;;;5022955;28;20385;-66
2021/12/30 03:19:32;;;;;;;13.60;6.27;;;6.40;99.90;;;;;;5023354;28;20188;-64
2021/12/30 03:21:58;;;;;;;11.20;6.17;;;6.40;99.90;;;;;;5020128;28;20181;-66
2021/12/30 03:24:23;;;;;;;11.80;6.23;;;6.50;99.90;;;;;;5023754;28;20204;-64
2021/12/30 03:26:49;;;;;;;13.30;6.43;;;6.50;99.90;;;;;;5024308;28;20198;-65
2021/12/30 03:29:15;;;;;;;11.60;6.70;;;6.50;99.90;;;;;;5031890;28;20211;-65
2021/12/30 03:31:40;;;;;;;11.97;7.57;;;6.40;99.90;;;;;;5024993;28;20199;-63
2021/12/30 03:34:06;;;;;;;9.43;6.10;;;6.50;99.90;;;;;;5022129;28;20249;-65
2021/12/30 03:36:33;;;;;;;11.70;6.53;;;6.50;99.90;;;;;;5019924;28;20274;-63
2021/12/30 03:38:59;;;;;;;11.97;7.37;;;6.50;99.90;;;;;;5020298;28;20191;-65
2021/12/30 03:41:27;;;;;;;11.00;6.07;;;6.50;99.90;;;;;;5022142;28;20571;-65
2021/12/30 03:43:53;;;;;;;17.03;8.87;;;6.50;99.90;;;;;;5020565;28;20773;-67
2021/12/30 03:46:19;;;;;;;13.90;6.67;;;6.50;99.90;;;;;;5021429;28;20191;-71
2021/12/30 03:48:45;;;;;;;13.37;6.93;;;6.50;99.90;;;;;;5027542;28;20617;-66
2021/12/30 03:51:21;;;;;;;12.00;7.03;;;6.50;99.90;;;;;;5016900;28;20191;-64
2021/12/30 03:53:49;;;;;;;11.30;6.67;;;6.50;99.90;;;;;;5023788;28;20224;-65
2021/12/30 03:56:18;;;;;;;13.17;6.80;;;6.50;99.90;;;;;;5022867;28;20193;-65
2021/12/30 03:58:45;;;;;;;13.30;7.37;;;6.50;99.90;;;;;;5022755;28;20195;-64
2021/12/30 04:01:14;;;;;;;15.83;7.37;;;6.60;99.90;;;;;;5023828;28;20276;-66
2021/12/30 04:03:41;;;;;;;14.73;7.50;;;6.60;99.90;;;;;;5023824;28;20193;-64
2021/12/30 04:06:07;;;;;;;9.07;5.97;;;6.60;99.90;;;;;;5026612;28;20659;-67
2021/12/30 04:08:33;;;;;;;17.33;6.67;;;6.60;99.90;;;;;;5026074;28;20189;-67
2021/12/30 04:10:59;;;;;;;10.93;6.13;;;6.70;99.90;;;;;;5024249;28;20212;-67
2021/12/30 04:13:25;;;;;;;9.17;6.17;;;6.60;99.90;;;;;;5024707;28;20502;-65
2021/12/30 04:15:52;;;;;;;10.43;6.17;;;6.70;99.90;;;;;;5029075;28;20198;-64
2021/12/30 04:18:17;;;;;;;12.50;7.17;;;6.80;99.90;;;;;;5023530;28;20232;-65
2021/12/30 04:20:43;;;;;;;9.43;5.80;;;6.80;99.90;;;;;;5033690;28;20642;-63
2021/12/30 04:23:09;;;;;;;11.87;6.60;;;6.80;99.90;;;;;;5020868;28;20185;-64
2021/12/30 04:25:35;;;;;;;10.97;5.83;;;6.90;99.90;;;;;;5020361;28;20276;-65
2021/12/30 04:28:00;;;;;;;10.27;6.27;;;6.80;99.90;;;;;;5019956;28;20196;-69
2021/12/30 04:30:26;;;;;;;8.93;5.87;;;6.80;99.90;;;;;;5021143;28;20196;-65
2021/12/30 04:32:52;;;;;;;12.23;6.70;;;6.90;99.90;;;;;;5018223;28;20278;-66
2021/12/30 04:35:18;;;;;;;9.50;4.93;;;7.00;99.90;;;;;;5019095;28;20286;-65
2021/12/30 04:37:44;;;;;;;7.03;4.13;;;7.30;99.90;;;;;;5021572;28;20198;-66
2021/12/30 04:40:11;;;;;;;7.93;5.00;;;7.40;99.90;;;;;;5021422;28;20259;-64
2021/12/30 04:42:37;;;;;;;7.87;4.10;;;7.80;99.90;;;;;;5018714;28;20229;-65
2021/12/30 04:45:04;;;;;;;8.93;4.17;;;8.00;99.90;;;;;;5018820;28;20208;-65
2021/12/30 04:47:30;;;;;;;7.33;3.67;;;8.40;99.90;;;;;;5021414;28;20189;-66
2021/12/30 04:49:57;;;;;;;7.17;3.90;;;8.40;99.90;;;;;;5019388;28;20184;-65
2021/12/30 04:52:24;;;;;;;4.60;3.13;;;8.70;99.90;;;;;;5020907;28;20187;-64
2021/12/30 04:54:50;;;;;;;7.80;3.50;;;8.80;99.90;;;;;;5022805;28;20555;-66
2021/12/30 04:57:16;;;;;;;4.83;3.20;;;9.00;99.90;;;;;;5019211;28;20189;-65
2021/12/30 04:59:41;;;;;;;5.33;3.87;;;9.00;99.90;;;;;;5020325;28;20222;-64
2021/12/30 05:02:07;;;;;;;6.23;3.90;;;9.10;99.90;;;;;;5016793;28;20649;-68
2021/12/30 05:04:33;;;;;;;6.10;3.40;;;9.30;99.90;;;;;;5017074;28;20653;-64
2021/12/30 05:06:59;;;;;;;5.33;3.40;;;9.30;99.90;;;;;;5017632;28;20185;-68
2021/12/30 05:09:24;;;;;;;5.30;3.60;;;9.20;99.90;;;;;;5013975;28;20189;-65
2021/12/30 05:11:50;;;;;;;4.87;3.67;;;9.10;99.90;;;;;;5019349;28;20195;-64
2021/12/30 05:14:16;;;;;;;6.67;3.37;;;9.30;99.90;;;;;;5019051;28;21141;-64
2021/12/30 05:16:42;;;;;;;4.80;2.93;;;9.20;99.90;;;;;;5019195;28;20188;-65
2021/12/30 05:19:08;;;;;;;6.60;3.77;;;9.20;99.90;;;;;;5020023;28;20184;-64
2021/12/30 05:21:34;;;;;;;5.10;3.00;;;9.20;99.90;;;;;;5019388;28;20203;-64
2021/12/30 05:24:00;;;;;;;4.63;3.20;;;9.20;99.90;;;;;;5020357;28;20189;-66
2021/12/30 05:26:28;;;;;;;5.30;3.27;;;9.20;99.90;;;;;;5021146;28;20652;-66
2021/12/30 05:28:57;;;;;;;5.03;2.77;;;9.40;99.90;;;;;;5023051;28;20267;-65
2021/12/30 05:31:24;;;;;;;8.00;3.00;;;9.40;99.90;;;;;;5021169;28;20178;-66
2021/12/30 05:33:50;;;;;;;3.40;2.57;;;9.60;99.90;;;;;;5020699;28;20683;-65
2021/12/30 05:36:17;;;;;;;3.67;2.50;;;9.60;99.90;;;;;;5021732;28;20199;-65
2021/12/30 05:38:42;;;;;;;8.57;3.57;;;9.60;99.90;;;;;;5023095;28;20188;-64
2021/12/30 05:41:08;;;;;;;9.20;3.07;;;9.60;99.90;;;;;;5022859;28;20188;-67
2021/12/30 05:43:34;;;;;;;3.90;2.70;;;9.60;99.90;;;;;;5023949;28;20269;-67
2021/12/30 05:45:59;;;;;;;5.43;2.57;;;9.70;99.90;;;;;;5023127;28;20181;-64
2021/12/30 05:48:26;;;;;;;4.77;2.73;;;9.60;99.90;;;;;;5021366;28;20196;-65
2021/12/30 05:50:53;;;;;;;4.00;2.47;;;9.70;99.90;;;;;;5021892;28;20640;-65
2021/12/30 05:53:19;;;;;;;4.50;2.43;;;9.70;99.90;;;;;;5021042;28;20208;-66
2021/12/30 05:55:45;;;;;;;5.67;3.00;;;9.70;99.90;;;;;;5021605;28;20225;-64
2021/12/30 05:58:11;;;;;;;4.50;2.67;;;9.80;99.90;;;;;;5017973;28;20258;-65
2021/12/30 06:00:37;;;;;;;7.47;3.13;;;9.90;99.90;;;;;;5018215;28;20193;-65
2021/12/30 06:03:02;;;;;;;5.47;3.20;;;9.70;99.90;;;;;;5018801;28;20193;-65
2021/12/30 06:05:28;;;;;;;4.50;3.10;;;9.70;99.90;;;;;;5019869;28;20199;-69
2021/12/30 06:07:54;;;;;;;6.47;3.10;;;9.70;99.90;;;;;;5019972;28;20188;-65
2021/12/30 06:10:20;;;;;;;4.67;2.70;;;9.70;99.90;;;;;;5025756;28;20185;-64
2021/12/30 06:12:46;;;;;;;5.03;3.13;;;9.80;99.90;;;;;;5021611;28;20213;-65
2021/12/30 06:15:13;;;;;;;6.47;3.47;;;9.80;99.90;;;;;;5021029;28;20189;-65
2021/12/30 06:17:39;;;;;;;5.80;3.40;;;9.80;99.90;;;;;;5021600;28;20180;-68
2021/12/30 06:20:07;;;;;;;6.53;3.40;;;9.80;99.90;;;;;;5020131;28;20644;-65
2021/12/30 06:22:33;;;;;;;5.07;4.00;;;9.70;99.90;;;;;;5018968;28;20669;-64
2021/12/30 06:24:59;;;;;;;12.53;3.77;;;9.80;99.90;;;;;;5019994;28;20185;-64
2021/12/30 06:27:24;;;;;;;7.23;3.23;;;9.60;99.90;;;;;;5018906;28;20205;-65
2021/12/30 06:29:51;;;;;;;7.60;4.10;;;9.60;99.90;;;;;;5015912;28;20496;-64
2021/12/30 06:32:17;;;;;;;4.97;3.73;;;9.60;99.90;;;;;;5021834;28;20180;-66
2021/12/30 06:34:43;;;;;;;7.67;4.00;;;9.60;99.90;;;;;;5018348;28;20224;-66
2021/12/30 06:37:11;;;;;;;6.53;3.80;;;9.60;99.90;;;;;;5020818;28;20188;-66
2021/12/30 06:39:37;;;;;;;8.47;3.53;;;9.70;99.90;;;;;;5020328;28;20196;-65
2021/12/30 06:42:03;;;;;;;5.97;3.93;;;9.50;99.90;;;;;;5022979;28;20805;-66
2021/12/30 06:44:28;;;;;;;5.00;3.40;;;9.40;99.90;;;;;;5023445;28;20276;-65
2021/12/30 06:46:57;;;;;;;6.33;4.03;;;9.30;99.90;;;;;;5022496;28;20180;-64
2021/12/30 06:49:24;;;;;;;6.53;3.40;;;9.40;99.90;;;;;;5022707;28;20268;-71
2021/12/30 06:51:50;;;;;;;8.07;3.93;;;9.40;99.90;;;;;;5030353;28;20181;-66
2021/12/30 06:54:15;;;;;;;5.70;3.90;;;9.50;99.90;;;;;;5029651;28;20219;-68
2021/12/30 06:56:41;;;;;;;7.40;4.17;;;9.40;99.90;;;;;;5032365;28;20271;-65
2021/12/30 06:59:07;;;;;;;5.00;4.00;;;9.40;99.90;;;;;;5023862;28;20613;-71
2021/12/30 07:01:32;;;;;;;4.63;3.70;;;9.30;99.90;;;;;;5026464;28;20209;-71
2021/12/30 07:03:58;;;;;;;7.53;3.23;;;9.20;99.90;;;;;;5031791;28;20720;-71
2021/12/30 07:06:24;;;;;;;6.17;2.87;;;9.20;99.90;;;;;;5030423;28;20188;-69
2021/12/30 07:08:50;;;;;;;5.73;3.70;;;9.20;99.90;;;;;;5027972;28;20196;-67
2021/12/30 07:11:15;;;;;;;8.57;4.67;;;9.20;99.90;;;;;;5025791;28;20572;-67
2021/12/30 07:13:41;;;;;;;8.27;4.80;;;9.20;99.90;;;;;;5025288;28;20263;-67
2021/12/30 07:16:07;;;;;;;4.93;3.67;;;9.30;99.90;;;;;;5026463;28;20238;-67
2021/12/30 07:18:33;;;;;;;8.07;3.90;;;9.20;99.90;;;;;;5028595;28;20494;-65
2021/12/30 07:20:59;;;;;;;5.83;4.00;;;9.20;99.90;;;;;;5025047;28;20294;-65
2021/12/30 07:23:24;;;;;;;10.07;4.93;;;9.20;99.90;;;;;;5025267;28;20311;-67
2021/12/30 07:25:50;;;;;;;12.90;4.80;;;9.10;99.90;;;;;;5025349;28;20181;-65
2021/12/30 07:28:16;;;;;;;6.43;4.17;;;9.10;99.90;;;;;;5026932;28;20243;-66
2021/12/30 07:30:41;;;;;;;9.07;3.83;;;9.20;99.90;;;;;;5025622;28;20204;-66
2021/12/30 07:33:07;;;;;;;6.53;3.90;;;9.10;99.90;;;;;;5025728;28;20237;-66
2021/12/30 07:35:35;;;;;;;7.43;3.83;;;9.10;99.90;;;;;;5026057;28;20276;-68
2021/12/30 07:38:01;;;;;;;6.00;2.80;;;9.10;99.90;;;;;;5024323;28;20184;-66
2021/12/30 07:40:26;;;;;;;8.17;3.20;;;9.50;99.90;;;;;;5025055;28;20181;-69
2021/12/30 07:42:52;;;;;;;5.30;2.70;;;9.50;99.90;;;;;;5026793;28;20197;-66
2021/12/30 07:45:18;;;;;;;5.10;3.10;;;9.60;99.90;;;;;;5031313;28;20204;-66
2021/12/30 07:47:44;;;;;;;7.60;3.30;;;9.80;99.90;;;;;;5025220;28;20589;-65
2021/12/30 07:50:11;;;;;;;8.73;2.83;;;10.00;99.90;;;;;;5027322;28;20177;-67
2021/12/30 07:52:37;;;;;;;6.03;2.70;;;10.00;99.90;;;;;;5026555;28;20234;-68
2021/12/30 07:55:08;;;;;;;5.57;2.70;;;10.10;99.90;;;;;;5020458;28;20196;-66
2021/12/30 07:57:34;;;;;;;4.53;2.53;;;10.20;99.90;;;;;;5018195;28;20192;-69
2021/12/30 08:00:00;;;;;;;3.07;2.27;;;10.20;99.90;;;;;;5017914;28;20547;-68
2021/12/30 08:02:26;;;;;;;4.87;2.67;;;10.20;99.90;;;;;;5019981;28;20201;-67
2021/12/30 08:04:52;;;;;;;7.50;2.37;;;10.30;99.90;;;;;;5020338;28;20193;-67
2021/12/30 08:07:21;;;;;;;4.57;2.23;;;10.20;99.90;;;;;;5023307;28;20197;-67
2021/12/30 08:09:48;;;;;;;6.00;2.83;;;10.30;99.90;;;;;;5022455;28;20208;-68
2021/12/30 08:12:13;;;;;;;3.97;2.17;;;10.30;99.90;;;;;;5024685;28;20289;-66
2021/12/30 08:14:39;;;;;;;6.37;2.87;;;10.30;99.90;;;;;;5027767;28;20638;-66
2021/12/30 08:17:05;;;;;;;8.00;2.90;;;10.30;99.90;;;;;;5022324;28;21138;-66
2021/12/30 08:19:31;;;;;;;4.33;2.87;;;10.30;99.90;;;;;;5020849;28;20197;-66
2021/12/30 08:21:56;;;;;;;5.47;2.70;;;10.20;99.90;;;;;;5019838;28;20188;-66
2021/12/30 08:24:22;;;;;;;7.73;2.60;;;10.20;99.90;;;;;;5020976;28;20193;-66
2021/12/30 08:26:48;;;;;;;4.07;2.70;;;10.20;99.90;;;;;;5019776;28;20231;-65
2021/12/30 08:29:13;;;;;;;5.03;2.43;;;10.20;99.90;;;;;;5020551;28;20527;-69
2021/12/30 08:31:39;;;;;;;5.37;2.60;;;10.40;99.90;;;;;;5019271;28;20196;-68
2021/12/30 08:34:05;;;;;;;7.77;3.30;;;10.40;99.90;;;;;;5021184;28;20525;-67
2021/12/30 08:36:32;;;;;;;6.00;3.10;;;10.40;99.90;;;;;;5021488;28;20259;-70
2021/12/30 08:38:58;;;;;;;6.43;3.30;;;10.40;99.90;;;;;;5019948;28;20189;-65
2021/12/30 08:41:24;;;;;;;4.77;3.10;;;10.50;99.90;;;;;;5021177;28;20542;-67
2021/12/30 08:43:50;;;;;;;5.23;2.87;;;10.50;99.90;;;;;;5022358;28;20201;-67
2021/12/30 08:46:16;;;;;;;6.60;3.00;;;10.50;99.90;;;;;;5021518;28;20189;-68
2021/12/30 08:48:42;;;;;;;7.37;3.00;;;10.50;99.90;;;;;;5022510;28;20209;-67
2021/12/30 08:51:09;;;;;;;8.57;3.30;;;10.50;99.90;;;;;;5018547;28;20644;-66
2021/12/30 08:53:40;;;;;;;6.80;3.27;;;10.60;99.90;;;;;;5021272;28;20690;-68
2021/12/30 08:56:08;;;;;;;6.83;2.80;;;10.60;99.90;;;;;;5025140;28;20181;-66
2021/12/30 08:58:34;;;;;;;6.73;2.50;;;10.70;99.90;;;;;;5019439;28;20173;-66
2021/12/30 09:01:02;;;;;;;5.63;3.00;;;10.70;99.90;;;;;;5020666;28;20181;-69
2021/12/30 09:03:27;;;;;;;7.63;3.20;;;10.80;99.90;;;;;;5018727;28;20679;-68
2021/12/30 09:05:53;;;;;;;7.73;4.43;;;10.90;99.90;;;;;;5019788;28;20188;-72
2021/12/30 09:08:19;;;;;;;6.90;3.20;;;10.90;99.90;;;;;;5019107;28;20211;-67
2021/12/30 09:10:46;;;;;;;5.90;2.67;;;10.90;99.90;;;;;;5022309;28;20265;-69
2021/12/30 09:13:16;;;;;;;7.27;3.30;;;11.00;99.90;;;;;;5022706;28;20213;-66
2021/12/30 09:15:42;;;;;;;4.80;2.87;;;11.00;99.90;;;;;;5017880;28;20184;-66
2021/12/30 09:18:08;;;;;;;3.67;2.50;;;11.00;99.90;;;;;;5019005;28;20177;-65
2021/12/30 09:20:35;;;;;;;4.43;2.93;;;11.00;99.90;;;;;;5019078;28;20236;-68
2021/12/30 09:23:03;;;;;;;5.33;3.00;;;11.00;99.90;;;;;;5023943;28;20234;-68
2021/12/30 09:25:30;;;;;;;5.60;3.20;;;10.90;99.90;;;;;;5020477;28;20751;-69
2021/12/30 09:27:57;;;;;;;6.47;3.20;;;10.90;99.90;;;;;;5020430;28;20739;-66
2021/12/30 09:30:25;;;;;;;8.50;3.10;;;11.00;99.90;;;;;;5018523;28;20288;-66
2021/12/30 09:32:53;;;;;;;8.27;2.60;;;11.10;99.90;;;;;;5021151;28;20256;-65
2021/12/30 09:35:19;;;;;;;6.27;3.13;;;11.20;99.90;;;;;;5023392;28;20247;-68
2021/12/30 09:37:46;;;;;;;4.53;3.10;;;11.20;99.90;;;;;;5030639;28;20287;-70
2021/12/30 09:40:14;;;;;;;7.80;2.70;;;11.20;99.90;;;;;;5029723;28;20219;-67
2021/12/30 09:42:44;;;;;;;4.57;2.60;;;11.20;99.90;;;;;;5027973;28;20195;-66
2021/12/30 09:45:11;;;;;;;6.83;2.60;;;11.30;99.90;;;;;;5026671;28;20178;-65
2021/12/30 09:47:44;;;;;;;6.93;3.07;;;11.30;99.90;;;;;;5029029;28;20189;-69
2021/12/30 09:50:10;;;;;;;6.57;2.60;;;11.30;99.90;;;;;;5031277;28;20224;-66
2021/12/30 09:52:35;;;;;;;6.30;2.70;;;11.50;99.90;;;;;;5032433;28;20246;-69
2021/12/30 09:55:01;;;;;;;5.60;2.53;;;11.50;99.90;;;;;;5028938;28;22085;-70
2021/12/30 09:57:27;;;;;;;5.27;2.80;;;11.50;99.90;;;;;;5029580;28;20212;-68
2021/12/30 09:59:53;;;;;;;3.90;2.70;;;11.50;99.90;;;;;;5030879;28;20192;-72
2021/12/30 10:02:19;;;;;;;6.47;2.50;;;11.50;99.90;;;;;;5031401;28;20268;-70
2021/12/30 10:04:44;;;;;;;8.73;2.47;;;11.60;99.90;;;;;;5031422;28;20221;-67
2021/12/30 10:07:21;;;;;;;5.97;2.50;;;11.70;99.90;;;;;;5037781;28;20783;-69
2021/12/30 10:09:50;;;;;;;9.07;2.47;;;11.70;99.90;;;;;;5020931;28;20209;-66
2021/12/30 10:12:39;;;;;;;5.30;2.40;;;11.60;99.90;;;;;;5018340;28;21348;-68
2021/12/30 10:15:06;;;;;;;7.00;2.67;;;11.70;99.90;;;;;;5017566;28;20188;-67
2021/12/30 10:17:32;;;;;;;9.20;2.73;;;11.80;99.90;;;;;;5017509;28;20189;-68
2021/12/30 10:20:14;;;;;;;5.27;2.00;;;11.80;99.90;;;;;;5018891;28;20193;-68
2021/12/30 10:22:40;;;;;;;6.33;2.10;;;11.80;99.90;;;;;;5017524;28;20204;-66
2021/12/30 10:25:25;;;;;;;5.17;1.97;;;11.80;99.90;;;;;;5019187;28;20203;-68
2021/12/30 10:27:51;;;;;;;3.90;2.00;;;12.00;99.90;;;;;;5017947;28;20667;-66
2021/12/30 10:30:43;;;;;;;5.27;2.30;;;12.00;99.90;;;;;;5016577;28;20193;-67
2021/12/30 10:33:17;;;;;;;2.93;1.80;;;12.10;99.90;;;;;;5016326;28;20327;-68
2021/12/30 10:35:43;;;;;;;3.43;1.87;;;12.20;99.90;;;;;;5018721;28;20193;-67
2021/12/30 10:38:10;;;;;;;4.50;2.10;;;12.20;99.90;;;;;;5022957;28;20249;-68
2021/12/30 10:40:39;;;;;;;6.17;2.37;;;12.10;99.90;;;;;;5022564;28;20193;-69
2021/12/30 10:43:27;;;;;;;4.10;2.07;;;12.10;99.90;;;;;;5019898;28;20551;-71
2021/12/30 10:46:18;;;;;;;10.83;5.67;;;12.10;99.90;;;;;;5016018;28;20667;-69
2021/12/30 10:48:47;;;;;;;3.73;2.10;;;12.20;99.90;;;;;;5017808;28;20189;-70
2021/12/30 10:51:22;;;;;;;8.37;3.17;;;12.30;99.90;;;;;;5017596;28;20565;-69
2021/12/30 10:53:50;;;;;;;12.30;8.47;;;12.30;99.90;;;;;;5017002;28;20208;-69
2021/12/30 10:56:30;;;;;;;5.77;2.60;;;12.20;99.90;;;;;;5016938;28;20738;-69
2021/12/30 10:59:08;;;;;;;10.43;5.30;;;12.40;99.90;;;;;;5016809;28;20238;-68
2021/12/30 11:01:38;;;;;;;11.10;7.57;;;12.30;99.90;;;;;;5017264;28;20200;-67
2021/12/30 11:04:04;;;;;;;13.40;7.97;;;12.10;99.90;;;;;;5018155;28;20601;-68
2021/12/30 11:06:30;;;;;;;13.63;7.13;;;12.10;99.90;;;;;;5019733;28;20215;-68
2021/12/30 11:09:15;;;;;;;13.23;7.00;;;12.10;99.90;;;;;;5017350;28;20204;-67
2021/12/30 11:12:02;;;;;;;23.27;14.07;;;12.00;99.90;;;;;;5015414;28;20960;-70
2021/12/30 11:14:31;;;;;;;16.03;10.37;;;12.00;99.90;;;;;;5015894;28;20735;-69
2021/12/30 11:17:05;;;;;;;17.00;11.10;;;12.00;99.90;;;;;;5016551;28;20182;-70
2021/12/30 11:19:34;;;;;;;7.93;3.93;;;12.10;99.90;;;;;;5013198;28;20188;-70
2021/12/30 11:22:01;;;;;;;25.80;16.77;;;12.10;99.90;;;;;;5018967;28;20621;-67
2021/12/30 11:24:29;;;;;;;17.10;9.23;;;12.20;99.90;;;;;;5021179;28;20265;-66
2021/12/30 11:26:55;;;;;;;3.07;1.70;;;12.10;99.90;;;;;;5020929;28;20217;-66
2021/12/30 11:29:22;;;;;;;7.35;3.13;;;12.40;99.90;;;;;;5025832;28;20438;-68
2021/12/30 11:31:48;;;;;;;18.13;9.80;;;12.50;99.90;;;;;;5024266;28;20217;-65
2021/12/30 11:34:14;;;;;;;13.90;7.43;;;12.30;99.90;;;;;;5024260;28;20269;-65
2021/12/30 11:36:40;;;;;;;11.05;5.75;;;12.30;99.90;;;;;;5020564;28;20931;-67
2021/12/30 11:39:18;;;;;;;12.70;5.93;;;12.30;99.90;;;;;;5026906;28;20189;-68
2021/12/30 11:41:52;;;;;;;6.53;4.10;;;12.30;99.90;;;;;;5022785;28;20187;-66
2021/12/30 11:44:37;;;;;;;12.77;8.07;;;12.30;99.90;;;;;;5016101;28;20204;-68
2021/12/30 11:47:05;;;;;;;8.50;4.37;;;12.30;99.90;;;;;;5021567;28;20650;-65
2021/12/30 11:50:02;;;;;;;5.10;3.10;;;12.40;99.90;;;;;;5020295;28;20196;-68
2021/12/30 11:52:50;;;;;;;14.30;7.43;;;12.50;99.90;;;;;;5021618;28;20260;-67
2021/12/30 11:55:44;;;;;;;3.27;2.10;;;12.40;99.90;;;;;;5019903;28;20679;-70
2021/12/30 11:58:27;;;;;;;3.77;1.60;;;12.70;99.90;;;;;;5021514;28;20208;-65
2021/12/30 12:00:57;;;;;;;5.70;2.03;;;12.90;99.90;;;;;;5022294;28;20667;-67
2021/12/30 12:03:27;;;;;;;2.87;1.57;;;12.80;99.90;;;;;;5025719;28;20239;-66
2021/12/30 12:05:53;;;;;;;4.23;1.70;;;12.70;99.90;;;;;;5019773;28;20186;-66
2021/12/30 12:08:19;;;;;;;2.73;1.60;;;12.70;99.90;;;;;;5030794;28;20178;-66
2021/12/30 12:11:15;;;;;;;1.93;1.50;;;12.70;99.90;;;;;;5030092;28;20181;-68
2021/12/30 12:13:43;;;;;;;8.13;2.00;;;12.60;99.90;;;;;;5030644;28;20285;-68
2021/12/30 12:16:10;;;;;;;2.47;1.57;;;12.80;99.90;;;;;;5028965;28;20707;-68
2021/12/30 12:18:36;;;;;;;2.57;1.50;;;12.70;99.90;;;;;;5025684;28;20590;-65
2021/12/30 12:21:04;;;;;;;2.03;1.63;;;12.70;99.90;;;;;;5025892;28;20343;-65
2021/12/30 12:23:33;;;;;;;2.87;1.70;;;12.80;99.90;;;;;;5027539;28;20207;-65
2021/12/30 12:26:07;;;;;;;2.63;1.20;;;12.80;99.90;;;;;;5027860;28;20189;-68
2021/12/30 12:28:33;;;;;;;3.23;2.00;;;12.80;99.90;;;;;;5025574;28;20197;-65
2021/12/30 12:30:58;;;;;;;2.17;1.10;;;12.70;99.90;;;;;;5024876;28;20285;-66
2021/12/30 12:33:32;;;;;;;3.50;1.30;;;12.80;99.90;;;;;;5020782;28;20240;-65
2021/12/30 12:35:58;;;;;;;1.97;1.30;;;12.80;99.90;;;;;;5021222;28;20520;-70
2021/12/30 12:38:50;;;;;;;4.73;1.70;;;12.80;99.90;;;;;;5024273;28;20294;-64
2021/12/30 12:41:28;;;;;;;2.07;1.33;;;12.80;99.90;;;;;;5029180;28;20566;-64
2021/12/30 12:44:05;;;;;;;1.50;0.97;;;12.80;99.90;;;;;;5020304;28;20643;-66
2021/12/30 12:46:46;;;;;;;1.67;1.10;;;12.60;99.90;;;;;;5017158;28;20258;-64
2021/12/30 12:49:31;;;;;;;2.07;1.20;;;12.60;99.90;;;;;;5019495;28;20662;-64
2021/12/30 12:51:57;;;;;;;2.00;1.17;;;12.50;99.90;;;;;;5019957;28;20193;-71
2021/12/30 12:54:48;;;;;;;1.93;1.63;;;12.60;99.90;;;;;;5021222;28;20267;-65